sensor_id;sensor_type;location;lat;lon;timestamp;temperature;humidity
14511;DHT22;7341;50.930;4.038;2023-01-20T00:20:05;1.70;99.90
14511;DHT22;7341;50.930;4.038;2023-01-20T00:30:00;1.60;99.90
14511;DHT22;7341;50.930;4.038;2023-01-20T00:32:45;1.60;99.90
14511;DHT22;7341;50.930;4.038;2023-01-20T00:35:40;1.60;99.90
14511;DHT22;7341;50.930;4.038;2023-01-20T00:38:43;1.50;99.90
14511;DHT22;7341;50.930;4.038;2023-01-20T00:48:28;1.50;99.90
14511;DHT22;7341;50.930;4.038;2023-01-20T00:51:26;1.40;99.90
14511;DHT22;7341;50.930;4.038;2023-01-20T00:54:22;1.40;99.90
14511;DHT22;7341;50.930;4.038;2023-01-20T00:56:57;1.30;99.90
14511;DHT22;7341;50.930;4.038;2023-01-20T00:59:53;1.40;99.90
14511;DHT22;7341;50.930;4.038;2023-01-20T01:02:35;1.40;99.90
14511;DHT22;7341;50.930;4.038;2023-01-20T01:05:36;1.40;99.90
14511;DHT22;7341;50.930;4.038;2023-01-20T01:08:17;1.40;99.90
14511;DHT22;7341;50.930;4.038;2023-01-20T01:11:03;1.50;99.90
14511;DHT22;7341;50.930;4.038;2023-01-20T01:14:22;1.40;99.90
14511;DHT22;7341;50.930;4.038;2023-01-20T01:17:27;1.30;99.90
14511;DHT22;7341;50.930;4.038;2023-01-20T01:20:16;1.30;99.90
14511;DHT22;7341;50.930;4.038;2023-01-20T01:22:56;1.40;99.90
14511;DHT22;7341;50.930;4.038;2023-01-20T01:26:01;1.40;99.90
14511;DHT22;7341;50.930;4.038;2023-01-20T01:28:39;1.30;99.90
14511;DHT22;7341;50.930;4.038;2023-01-20T01:31:47;1.10;99.90
14511;DHT22;7341;50.930;4.038;2023-01-20T01:38:02;1.20;99.90
14511;DHT22;7341;50.930;4.038;2023-01-20T01:43:37;1.20;99.90
14511;DHT22;7341;50.930;4.038;2023-01-20T01:46:26;1.00;99.90
14511;DHT22;7341;50.930;4.038;2023-01-20T01:49:25;1.00;99.90
14511;DHT22;7341;50.930;4.038;2023-01-20T01:52:07;1.10;99.90
14511;DHT22;7341;50.930;4.038;2023-01-20T01:55:10;1.20;99.90
14511;DHT22;7341;50.930;4.038;2023-01-20T02:11:04;1.20;99.90
14511;DHT22;7341;50.930;4.038;2023-01-20T02:27:13;1.10;99.90
14511;DHT22;7341;50.930;4.038;2023-01-20T02:30:39;1.10;99.90
14511;DHT22;7341;50.930;4.038;2023-01-20T02:46:23;1.10;99.90
14511;DHT22;7341;50.930;4.038;2023-01-20T02:49:21;1.10;99.90
14511;DHT22;7341;50.930;4.038;2023-01-20T02:52:17;1.00;99.90
14511;DHT22;7341;50.930;4.038;2023-01-20T03:19:13;0.90;99.90
14511;DHT22;7341;50.930;4.038;2023-01-20T03:22:34;0.80;99.90
14511;DHT22;7341;50.930;4.038;2023-01-20T03:25:46;0.80;99.90
14511;DHT22;7341;50.930;4.038;2023-01-20T03:28:51;0.80;99.90
14511;DHT22;7341;50.930;4.038;2023-01-20T03:31:40;0.90;99.90
14511;DHT22;7341;50.930;4.038;2023-01-20T03:34:56;0.70;99.90
14511;DHT22;7341;50.930;4.038;2023-01-20T03:37:51;0.80;99.90
14511;DHT22;7341;50.930;4.038;2023-01-20T03:40:29;0.80;99.90
14511;DHT22;7341;50.930;4.038;2023-01-20T03:43:35;0.80;99.90
14511;DHT22;7341;50.930;4.038;2023-01-20T03:46:46;0.90;99.90
14511;DHT22;7341;50.930;4.038;2023-01-20T04:20:23;1.20;99.90
14511;DHT22;7341;50.930;4.038;2023-01-20T04:23:38;1.40;99.90
14511;DHT22;7341;50.930;4.038;2023-01-20T04:26:37;1.40;99.90
14511;DHT22;7341;50.930;4.038;2023-01-20T04:29:45;1.40;99.90
14511;DHT22;7341;50.930;4.038;2023-01-20T04:36:46;1.20;99.90
14511;DHT22;7341;50.930;4.038;2023-01-20T04:39:56;1.40;99.90
14511;DHT22;7341;50.930;4.038;2023-01-20T04:43:30;1.40;99.90
14511;DHT22;7341;50.930;4.038;2023-01-20T04:46:34;1.20;99.90
14511;DHT22;7341;50.930;4.038;2023-01-20T04:49:48;1.30;99.90
14511;DHT22;7341;50.930;4.038;2023-01-20T04:59:48;1.20;99.90
14511;DHT22;7341;50.930;4.038;2023-01-20T05:02:55;1.30;99.90
14511;DHT22;7341;50.930;4.038;2023-01-20T05:12:27;1.40;99.90
14511;DHT22;7341;50.930;4.038;2023-01-20T05:56:43;1.40;99.90
14511;DHT22;7341;50.930;4.038;2023-01-20T06:07:03;1.20;99.90
14511;DHT22;7341;50.930;4.038;2023-01-20T06:20:25;1.20;99.90
14511;DHT22;7341;50.930;4.038;2023-01-20T06:27:10;1.20;99.90
14511;DHT22;7341;50.930;4.038;2023-01-20T06:30:32;1.30;99.90
14511;DHT22;7341;50.930;4.038;2023-01-20T06:33:55;1.20;99.90
14511;DHT22;7341;50.930;4.038;2023-01-20T06:59:49;1.30;99.90
14511;DHT22;7341;50.930;4.038;2023-01-20T07:06:45;1.30;99.90
14511;DHT22;7341;50.930;4.038;2023-01-20T07:19:58;1.30;99.90
14511;DHT22;7341;50.930;4.038;2023-01-20T07:29:55;1.40;99.90
14511;DHT22;7341;50.930;4.038;2023-01-20T08:09:29;2.00;99.90
14511;DHT22;7341;50.930;4.038;2023-01-20T08:12:22;2.00;99.90
14511;DHT22;7341;50.930;4.038;2023-01-20T08:18:24;1.90;99.90
14511;DHT22;7341;50.930;4.038;2023-01-20T12:01:53;5.30;99.90
14511;DHT22;7341;50.930;4.038;2023-01-20T12:04:40;5.30;99.90
14511;DHT22;7341;50.930;4.038;2023-01-20T12:07:13;5.40;99.90
14511;DHT22;7341;50.930;4.038;2023-01-20T12:09:48;5.40;99.90
14511;DHT22;7341;50.930;4.038;2023-01-20T12:12:26;5.70;99.90
14511;DHT22;7341;50.930;4.038;2023-01-20T12:14:59;5.80;99.90
14511;DHT22;7341;50.930;4.038;2023-01-20T12:17:57;5.70;99.90
14511;DHT22;7341;50.930;4.038;2023-01-20T12:20:41;5.70;99.90
14511;DHT22;7341;50.930;4.038;2023-01-20T12:23:18;5.80;99.90
14511;DHT22;7341;50.930;4.038;2023-01-20T12:25:54;5.70;99.90
14511;DHT22;7341;50.930;4.038;2023-01-20T12:28:33;5.80;99.90
14511;DHT22;7341;50.930;4.038;2023-01-20T12:31:06;5.80;99.90
14511;DHT22;7341;50.930;4.038;2023-01-20T12:33:39;5.80;99.90
14511;DHT22;7341;50.930;4.038;2023-01-20T12:36:34;5.90;99.90
14511;DHT22;7341;50.930;4.038;2023-01-20T12:47:26;6.00;99.90
14511;DHT22;7341;50.930;4.038;2023-01-20T12:50:23;6.10;99.90
14511;DHT22;7341;50.930;4.038;2023-01-20T12:53:18;6.10;99.90
14511;DHT22;7341;50.930;4.038;2023-01-20T12:55:57;6.20;99.90
14511;DHT22;7341;50.930;4.038;2023-01-20T12:59:06;6.10;99.90
14511;DHT22;7341;50.930;4.038;2023-01-20T13:01:53;6.10;99.90
14511;DHT22;7341;50.930;4.038;2023-01-20T13:05:05;6.20;99.90
14511;DHT22;7341;50.930;4.038;2023-01-20T13:08:05;6.10;99.90
14511;DHT22;7341;50.930;4.038;2023-01-20T13:10:50;6.00;99.90
14511;DHT22;7341;50.930;4.038;2023-01-20T13:13:29;6.10;99.90
14511;DHT22;7341;50.930;4.038;2023-01-20T13:16:16;6.20;99.90
14511;DHT22;7341;50.930;4.038;2023-01-20T13:19:09;6.20;99.90
14511;DHT22;7341;50.930;4.038;2023-01-20T13:22:14;6.30;99.90
14511;DHT22;7341;50.930;4.038;2023-01-20T13:25:15;6.30;99.90
14511;DHT22;7341;50.930;4.038;2023-01-20T13:27:50;6.40;99.90
14511;DHT22;7341;50.930;4.038;2023-01-20T13:30:47;6.30;99.90
14511;DHT22;7341;50.930;4.038;2023-01-20T13:33:37;6.40;99.90
14511;DHT22;7341;50.930;4.038;2023-01-20T13:36:17;6.30;99.90
14511;DHT22;7341;50.930;4.038;2023-01-20T13:55:51;6.50;99.90
14511;DHT22;7341;50.930;4.038;2023-01-20T13:58:20;6.50;99.90
14511;DHT22;7341;50.930;4.038;2023-01-20T14:00:50;6.50;99.90
14511;DHT22;7341;50.930;4.038;2023-01-20T14:03:21;6.50;99.90
14511;DHT22;7341;50.930;4.038;2023-01-20T14:05:49;6.30;99.90
14511;DHT22;7341;50.930;4.038;2023-01-20T14:08:16;6.10;99.90
14511;DHT22;7341;50.930;4.038;2023-01-20T14:10:43;5.90;99.90
14511;DHT22;7341;50.930;4.038;2023-01-20T14:13:19;5.80;99.90
14511;DHT22;7341;50.930;4.038;2023-01-20T14:15:51;5.60;99.90
14511;DHT22;7341;50.930;4.038;2023-01-20T14:18:20;5.30;99.90
14511;DHT22;7341;50.930;4.038;2023-01-20T14:21:03;5.20;99.90
14511;DHT22;7341;50.930;4.038;2023-01-20T15:49:35;5.40;99.90
14511;DHT22;7341;50.930;4.038;2023-01-20T16:23:41;5.20;99.90
14511;DHT22;7341;50.930;4.038;2023-01-20T16:26:17;5.10;99.90
14511;DHT22;7341;50.930;4.038;2023-01-20T16:28:51;4.90;99.90
14511;DHT22;7341;50.930;4.038;2023-01-20T16:31:25;4.80;99.90
14511;DHT22;7341;50.930;4.038;2023-01-20T16:33:54;4.80;99.90
14511;DHT22;7341;50.930;4.038;2023-01-20T16:36:27;4.70;99.90
14511;DHT22;7341;50.930;4.038;2023-01-20T16:39:03;4.70;99.90
14511;DHT22;7341;50.930;4.038;2023-01-20T16:41:30;4.70;99.90
14511;DHT22;7341;50.930;4.038;2023-01-20T16:44:03;4.60;99.90
14511;DHT22;7341;50.930;4.038;2023-01-20T16:46:37;4.50;99.90
14511;DHT22;7341;50.930;4.038;2023-01-20T16:49:11;4.50;99.90
14511;DHT22;7341;50.930;4.038;2023-01-20T16:52:04;4.60;99.90
14511;DHT22;7341;50.930;4.038;2023-01-20T16:54:46;4.50;99.90
14511;DHT22;7341;50.930;4.038;2023-01-20T16:57:20;4.50;99.90
14511;DHT22;7341;50.930;4.038;2023-01-20T16:59:50;4.70;99.90
14511;DHT22;7341;50.930;4.038;2023-01-20T17:02:18;4.60;99.90
14511;DHT22;7341;50.930;4.038;2023-01-20T17:04:46;4.70;99.90
14511;DHT22;7341;50.930;4.038;2023-01-20T17:07:16;4.60;99.90
14511;DHT22;7341;50.930;4.038;2023-01-20T17:09:49;4.60;99.90
14511;DHT22;7341;50.930;4.038;2023-01-20T17:12:36;4.60;99.90
14511;DHT22;7341;50.930;4.038;2023-01-20T17:15:18;4.50;99.90
14511;DHT22;7341;50.930;4.038;2023-01-20T17:17:55;4.50;99.90
14511;DHT22;7341;50.930;4.038;2023-01-20T17:20:30;4.50;99.90
14511;DHT22;7341;50.930;4.038;2023-01-20T17:23:10;4.70;99.90
14511;DHT22;7341;50.930;4.038;2023-01-20T17:25:43;4.70;99.90
14511;DHT22;7341;50.930;4.038;2023-01-20T17:31:12;4.90;99.90
14511;DHT22;7341;50.930;4.038;2023-01-20T17:33:44;4.80;99.90
14511;DHT22;7341;50.930;4.038;2023-01-20T17:52:11;4.80;99.90
14511;DHT22;7341;50.930;4.038;2023-01-20T18:01:55;4.60;99.90
14511;DHT22;7341;50.930;4.038;2023-01-20T20:32:45;2.30;99.90
14511;DHT22;7341;50.930;4.038;2023-01-20T20:35:40;2.30;99.90
14511;DHT22;7341;50.930;4.038;2023-01-20T20:41:31;2.20;99.90
14511;DHT22;7341;50.930;4.038;2023-01-20T20:48:08;2.30;99.90
14511;DHT22;7341;50.930;4.038;2023-01-20T20:51:22;2.30;99.90
14511;DHT22;7341;50.930;4.038;2023-01-20T20:54:29;2.30;99.90
14511;DHT22;7341;50.930;4.038;2023-01-20T21:31:56;2.30;99.90
14511;DHT22;7341;50.930;4.038;2023-01-20T21:34:56;2.30;99.90
14511;DHT22;7341;50.930;4.038;2023-01-20T22:08:03;2.40;99.90
14511;DHT22;7341;50.930;4.038;2023-01-20T22:14:18;2.30;99.90
14511;DHT22;7341;50.930;4.038;2023-01-20T22:17:20;2.20;99.90
14511;DHT22;7341;50.930;4.038;2023-01-20T22:20:48;2.20;99.90
14511;DHT22;7341;50.930;4.038;2023-01-20T22:30:16;2.30;99.90
14511;DHT22;7341;50.930;4.038;2023-01-20T22:33:06;2.20;99.90
14511;DHT22;7341;50.930;4.038;2023-01-20T22:36:05;2.10;99.90
14511;DHT22;7341;50.930;4.038;2023-01-20T22:38:57;2.20;99.90
14511;DHT22;7341;50.930;4.038;2023-01-20T22:42:01;1.90;99.90
14511;DHT22;7341;50.930;4.038;2023-01-20T22:45:08;2.10;99.90
14511;DHT22;7341;50.930;4.038;2023-01-20T22:48:18;2.10;99.90
14511;DHT22;7341;50.930;4.038;2023-01-20T22:51:28;2.30;99.90
14511;DHT22;7341;50.930;4.038;2023-01-20T22:54:52;2.30;99.90
14511;DHT22;7341;50.930;4.038;2023-01-20T22:57:48;2.10;99.90
14511;DHT22;7341;50.930;4.038;2023-01-20T23:00:26;2.20;99.90
14511;DHT22;7341;50.930;4.038;2023-01-20T23:03:13;2.20;99.90
14511;DHT22;7341;50.930;4.038;2023-01-20T23:06:06;2.20;99.90
14511;DHT22;7341;50.930;4.038;2023-01-20T23:09:12;2.30;99.90
14511;DHT22;7341;50.930;4.038;2023-01-20T23:12:01;2.20;99.90
14511;DHT22;7341;50.930;4.038;2023-01-20T23:18:15;2.00;99.90
14511;DHT22;7341;50.930;4.038;2023-01-20T23:21:07;2.10;99.90
14511;DHT22;7341;50.930;4.038;2023-01-20T23:24:28;2.10;99.90
14511;DHT22;7341;50.930;4.038;2023-01-20T23:27:24;2.10;99.90
14511;DHT22;7341;50.930;4.038;2023-01-20T23:30:14;1.90;99.90
14511;DHT22;7341;50.930;4.038;2023-01-20T23:33:18;1.90;99.90
14511;DHT22;7341;50.930;4.038;2023-01-20T23:36:20;1.90;99.90
14511;DHT22;7341;50.930;4.038;2023-01-20T23:39:29;1.80;99.90
14511;DHT22;7341;50.930;4.038;2023-01-20T23:42:05;1.70;99.90
14511;DHT22;7341;50.930;4.038;2023-01-20T23:44:52;1.40;99.90
14511;DHT22;7341;50.930;4.038;2023-01-20T23:47:49;1.50;99.90
14511;DHT22;7341;50.930;4.038;2023-01-20T23:50:31;1.50;99.90
14511;DHT22;7341;50.930;4.038;2023-01-20T23:53:22;1.40;99.90
14511;DHT22;7341;50.930;4.038;2023-01-20T23:56:16;1.40;99.90
14511;DHT22;7341;50.930;4.038;2023-01-20T23:58:59;1.40;99.90
